createdAt,value
2022-07-28T04:46:26.548Z,58.10
2022-07-28T04:46:58.372Z,58.30
2022-07-28T04:47:30.276Z,58.70
2022-07-28T04:48:02.278Z,58.20
2022-07-28T04:48:34.185Z,58.90
2022-07-28T04:49:06.299Z,59.00
2022-07-28T04:49:38.692Z,59.10
2022-07-28T04:50:15.074Z,59.10
2022-07-28T04:50:47.026Z,59.10
2022-07-28T04:51:18.865Z,59.40
2022-07-28T04:51:52.377Z,59.20
2022-07-28T04:52:25.565Z,59.20
2022-07-28T04:52:57.576Z,59.20
2022-07-28T04:53:30.539Z,59.40
2022-07-28T04:54:02.347Z,59.30
2022-07-28T04:54:35.281Z,59.30
2022-07-28T04:55:08.064Z,59.20
2022-07-28T04:55:39.982Z,59.30
2022-07-28T04:56:11.781Z,59.30
2022-07-28T04:56:44.688Z,59.40
2022-07-28T04:57:16.919Z,59.30
2022-07-28T04:57:49.618Z,59.40
2022-07-28T04:58:22.644Z,59.40
2022-07-28T04:58:55.122Z,59.50
2022-07-28T04:59:27.495Z,59.40
2022-07-28T05:00:00.855Z,59.40
2022-07-28T05:00:32.835Z,60.10
2022-07-28T05:01:04.924Z,59.40
2022-07-28T05:01:39.209Z,59.40
2022-07-28T05:02:11.367Z,59.50
2022-07-28T05:02:44.921Z,59.40
2022-07-28T05:03:16.830Z,59.50
2022-07-28T05:03:48.657Z,59.60
2022-07-28T05:04:20.528Z,59.50
2022-07-28T05:04:52.773Z,59.40
2022-07-28T05:05:25.783Z,59.60
2022-07-28T05:05:57.992Z,59.60
2022-07-28T05:06:30.310Z,59.60
2022-07-28T05:07:02.158Z,59.60
2022-07-28T05:07:44.241Z,59.70
2022-07-28T05:08:16.101Z,59.50
2022-07-28T05:08:49.562Z,59.70
2022-07-28T05:09:21.442Z,59.70
2022-07-28T05:09:53.247Z,60.10
2022-07-28T05:10:25.143Z,60.20
2022-07-28T05:10:56.994Z,59.70
2022-07-28T05:11:28.820Z,59.70
2022-07-28T05:12:00.643Z,59.70
2022-07-28T05:12:32.602Z,59.80
2022-07-28T05:13:06.197Z,59.70
2022-07-28T05:13:37.960Z,59.70
2022-07-28T05:14:12.633Z,59.70
2022-07-28T05:14:45.200Z,59.70
2022-07-28T05:15:17.040Z,59.60
2022-07-28T05:15:48.856Z,59.70
2022-07-28T05:16:20.718Z,59.90
2022-07-28T05:16:52.629Z,59.90
2022-07-28T05:17:25.614Z,59.80
2022-07-28T05:17:57.433Z,59.80
2022-07-28T05:18:29.818Z,60.80
2022-07-28T05:19:01.851Z,59.90
2022-07-28T05:19:33.634Z,59.80
2022-07-28T05:20:08.303Z,59.90
2022-07-28T05:20:40.057Z,60.10
2022-07-28T05:21:11.968Z,59.90
2022-07-28T05:21:46.569Z,60.00
2022-07-28T05:22:18.382Z,59.90
2022-07-28T05:22:57.456Z,59.90
2022-07-28T05:23:29.551Z,59.80
2022-07-28T05:24:01.359Z,59.80
2022-07-28T05:24:33.180Z,59.90
2022-07-28T05:25:12.320Z,60.00
2022-07-28T05:25:44.133Z,59.80
2022-07-28T05:26:16.540Z,59.90
2022-07-28T05:26:48.375Z,59.80
2022-07-28T05:27:20.217Z,59.90
2022-07-28T05:27:53.247Z,60.10
2022-07-28T05:28:25.351Z,60.00
2022-07-28T05:28:57.154Z,60.00
2022-07-28T05:29:41.856Z,59.90
2022-07-28T05:30:20.390Z,59.90
2022-07-28T05:30:52.250Z,60.00
2022-07-28T05:31:24.328Z,60.00
2022-07-28T05:31:56.348Z,59.90
2022-07-28T05:32:28.276Z,60.00
2022-07-28T05:33:01.764Z,60.60
2022-07-28T05:33:34.389Z,60.00
2022-07-28T05:34:06.185Z,60.10
2022-07-28T05:34:38.070Z,60.20
2022-07-28T05:35:10.074Z,60.00
2022-07-28T05:35:42.020Z,60.10
2022-07-28T05:36:13.791Z,60.20
2022-07-28T05:36:45.575Z,60.10
2022-07-28T05:37:17.378Z,60.10
2022-07-28T05:37:49.190Z,60.40
2022-07-28T05:38:21.930Z,60.70
2022-07-28T05:38:53.719Z,60.30
2022-07-28T05:39:25.487Z,60.30
2022-07-28T05:39:57.274Z,60.40
2022-07-28T05:40:30.001Z,60.50
2022-07-28T05:41:01.817Z,60.40
2022-07-28T05:41:33.800Z,60.70
2022-07-28T05:42:06.257Z,61.00
2022-07-28T05:42:38.193Z,60.30
2022-07-28T05:43:10.034Z,60.50
2022-07-28T05:43:41.801Z,60.40
2022-07-28T05:44:13.967Z,60.60
2022-07-28T05:44:45.892Z,60.40
2022-07-28T05:45:18.002Z,60.40
2022-07-28T05:45:50.147Z,60.50
2022-07-28T05:46:22.037Z,60.70
2022-07-28T05:46:53.854Z,60.50
2022-07-28T05:47:25.668Z,60.60
2022-07-28T05:47:57.442Z,60.70
2022-07-28T05:48:29.263Z,61.30
2022-07-28T05:49:01.410Z,60.80
2022-07-28T05:49:33.818Z,60.90
2022-07-28T07:22:47.015Z,62.00
2022-07-28T07:23:18.834Z,60.70
2022-07-28T07:23:50.594Z,60.90
2022-07-28T07:24:22.488Z,61.10
2022-07-28T07:24:57.060Z,61.30
2022-07-28T07:25:29.701Z,61.30
2022-07-28T07:26:02.792Z,61.50
2022-07-28T07:26:38.121Z,61.70
2022-07-28T07:27:14.907Z,61.70
2022-07-28T07:27:50.828Z,61.80
2022-07-28T07:28:26.324Z,61.90
2022-07-28T07:29:02.116Z,61.90
2022-07-28T07:29:39.395Z,62.30
2022-07-28T07:30:14.722Z,62.20
2022-07-28T07:30:49.014Z,62.60
2022-07-28T07:31:22.750Z,62.30
2022-07-28T07:42:07.244Z,64.00
2022-07-28T07:42:39.018Z,63.00
2022-07-28T07:43:10.948Z,63.00
2022-07-28T07:43:47.335Z,63.00
2022-07-28T07:44:19.555Z,62.80
2022-07-28T07:44:51.450Z,62.80
2022-07-28T07:45:23.405Z,62.60
2022-07-28T07:45:55.286Z,62.60
2022-07-28T07:46:27.170Z,62.40
2022-07-28T07:46:59.038Z,63.80
2022-07-28T07:47:31.202Z,62.30
2022-07-28T07:48:06.168Z,62.30
2022-07-28T07:48:38.586Z,62.30
2022-07-28T07:49:13.735Z,62.60
2022-07-28T07:49:46.960Z,62.90
2022-07-28T07:50:21.459Z,62.90
2022-07-28T07:50:56.712Z,63.00
2022-07-28T07:51:32.536Z,62.80
2022-07-28T07:52:09.019Z,63.20
2022-07-28T07:52:44.650Z,63.00
2022-07-28T07:53:17.256Z,63.50
2022-07-28T07:53:49.602Z,63.00
2022-07-28T07:54:26.327Z,63.70
2022-07-28T07:55:04.726Z,63.70
2022-07-28T07:55:38.017Z,63.30
2022-07-28T07:56:10.075Z,63.10
2022-07-28T07:56:45.759Z,62.90
2022-07-28T07:57:20.511Z,61.30
2022-07-28T07:57:56.091Z,62.60
2022-07-28T07:58:33.336Z,63.00
2022-07-28T07:59:11.017Z,63.10
2022-07-28T07:59:44.834Z,63.30
2022-07-28T08:00:30.545Z,63.20
2022-07-28T08:01:06.498Z,63.00
2022-07-28T08:01:41.355Z,62.80
2022-07-28T08:02:18.917Z,63.40
2022-07-28T08:03:01.459Z,63.40
2022-07-28T08:03:36.333Z,62.80
2022-07-28T08:04:12.364Z,62.90
2022-07-28T08:04:51.068Z,62.90
2022-07-28T08:05:34.776Z,63.20
2022-07-28T08:06:08.798Z,63.40
2022-07-28T08:06:41.926Z,63.80
2022-07-28T08:07:14.371Z,63.50
2022-07-28T08:07:46.285Z,63.20
2022-07-28T08:08:18.046Z,63.10
2022-07-28T08:08:49.850Z,63.10
2022-07-28T08:09:21.698Z,63.00
2022-07-28T08:09:53.577Z,62.90
2022-07-28T08:10:25.538Z,62.90
2022-07-28T08:10:57.365Z,63.00
2022-07-28T08:11:29.142Z,63.00
2022-07-28T08:12:00.958Z,63.00
2022-07-28T08:12:33.382Z,62.90
2022-07-28T08:13:07.418Z,63.10
2022-07-28T08:13:39.235Z,63.30
2022-07-28T08:14:11.547Z,63.10
2022-07-28T08:14:43.545Z,63.10
2022-07-28T08:15:19.758Z,62.90
2022-07-28T08:15:51.702Z,62.90
2022-07-28T08:16:23.577Z,63.00
2022-07-28T08:16:59.410Z,63.00
2022-07-28T08:17:31.369Z,63.10
2022-07-28T08:18:04.253Z,63.10
2022-07-28T08:18:36.203Z,63.20
2022-07-28T08:19:07.986Z,63.20
2022-07-28T08:19:40.758Z,63.20
2022-07-28T08:20:12.711Z,63.10
2022-07-28T08:20:44.583Z,63.00
2022-07-28T08:21:17.676Z,63.00
2022-07-28T08:21:49.454Z,63.00
2022-07-28T08:22:21.407Z,63.00
2022-07-28T08:22:55.504Z,63.20
2022-07-28T08:23:27.406Z,63.10
2022-07-28T08:23:59.552Z,62.90
2022-07-28T08:24:33.561Z,63.00
2022-07-28T08:25:06.763Z,63.00
2022-07-28T08:25:39.421Z,63.60
2022-07-28T08:26:12.383Z,63.10
2022-07-28T08:26:44.196Z,63.30
2022-07-28T08:27:16.022Z,63.20
2022-07-28T08:27:48.028Z,63.20
2022-07-28T08:28:19.826Z,63.60
2022-07-28T08:28:52.461Z,62.90
2022-07-28T08:29:24.278Z,63.00
2022-07-28T08:29:56.081Z,63.10
2022-07-28T08:30:32.388Z,63.10
2022-07-28T08:31:04.934Z,62.90
2022-07-28T08:31:36.906Z,62.90
2022-07-28T08:32:08.899Z,62.80
2022-07-28T08:32:42.252Z,62.80
2022-07-28T08:33:14.126Z,63.50
2022-07-28T08:33:53.427Z,62.90
2022-07-28T08:34:31.539Z,62.80
2022-07-28T08:35:31.846Z,63.40
2022-07-28T08:35:58.436Z,62.70
2022-07-28T08:36:32.046Z,62.80
2022-07-28T08:37:05.450Z,62.90
2022-07-28T08:37:40.843Z,62.70
2022-07-28T08:38:12.813Z,62.70
2022-07-28T08:38:44.712Z,62.60
2022-07-28T08:39:16.561Z,64.30
2022-07-28T08:39:48.357Z,62.60
2022-07-28T08:40:23.437Z,62.60
2022-07-28T08:41:01.291Z,62.60
2022-07-28T08:41:46.890Z,62.50
2022-07-28T08:42:27.768Z,62.60
2022-07-28T08:43:05.581Z,63.10
2022-07-28T08:43:42.717Z,63.20
2022-07-28T08:44:17.712Z,63.00
2022-07-28T08:45:02.465Z,63.00
2022-07-28T08:45:37.253Z,62.90
2022-07-28T08:46:09.584Z,62.60
2022-07-28T08:46:44.178Z,62.60
2022-07-28T08:47:16.852Z,62.50
2022-07-28T08:48:07.626Z,63.10
2022-07-28T08:48:40.081Z,63.60
2022-07-28T08:49:15.542Z,63.50
2022-07-28T08:49:49.236Z,63.20
2022-07-28T08:50:24.238Z,63.10
2022-07-28T08:51:00.428Z,62.90
2022-07-28T08:51:33.503Z,62.80
2022-07-28T08:52:06.397Z,62.60
2022-07-28T08:52:40.151Z,62.60
2022-07-28T08:53:15.050Z,62.70
2022-07-28T08:53:48.678Z,62.90
2022-07-28T08:54:26.023Z,63.00
2022-07-28T08:55:01.914Z,63.10
2022-07-28T08:55:35.724Z,63.10
2022-07-28T08:56:13.511Z,62.90
2022-07-28T08:56:48.211Z,62.80
2022-07-28T08:57:30.678Z,62.70
2022-07-28T08:58:03.656Z,62.70
2022-07-28T08:58:37.184Z,62.70
2022-07-28T08:59:09.046Z,62.70
2022-07-28T08:59:41.226Z,62.70
2022-07-28T09:00:13.387Z,63.20
2022-07-28T09:00:47.009Z,62.60
2022-07-28T09:01:19.033Z,62.50
2022-07-28T09:01:57.291Z,62.40
2022-07-28T09:02:31.349Z,62.40
2022-07-28T09:03:04.601Z,62.50
2022-07-28T09:03:39.063Z,62.60
2022-07-28T09:04:12.505Z,62.50
2022-07-28T09:04:46.222Z,62.40
2022-07-28T09:05:20.918Z,62.20
2022-07-28T09:05:53.907Z,62.40
2022-07-28T09:06:26.301Z,62.30
2022-07-28T09:06:58.445Z,62.40
2022-07-28T09:07:32.012Z,62.30
2022-07-28T09:08:04.271Z,62.10
2022-07-28T09:08:36.532Z,62.40
2022-07-28T09:09:09.843Z,62.40
2022-07-28T09:09:42.277Z,62.40
2022-07-28T09:10:14.095Z,62.50
2022-07-28T09:10:47.438Z,62.50
2022-07-28T09:11:19.316Z,62.30
2022-07-28T09:11:51.180Z,62.30
2022-07-28T09:12:27.237Z,62.20
2022-07-28T09:12:59.532Z,62.30
2022-07-28T09:13:31.292Z,62.20
2022-07-28T09:14:03.219Z,62.20
2022-07-28T09:14:35.407Z,62.20
2022-07-28T09:15:09.877Z,62.10
2022-07-28T09:15:42.092Z,62.20
2022-07-28T09:16:15.258Z,62.30
2022-07-28T09:16:47.083Z,62.20
2022-07-28T09:17:19.073Z,60.90
2022-07-28T09:17:50.903Z,62.00
2022-07-28T09:18:23.080Z,61.90
2022-07-28T09:18:54.942Z,61.90
2022-07-28T09:19:26.710Z,61.90
2022-07-28T09:20:10.818Z,61.60
2022-07-28T09:20:44.121Z,61.90
2022-07-28T09:21:17.633Z,61.90
2022-07-28T09:21:49.821Z,61.90
2022-07-28T09:22:21.671Z,62.10
2022-07-28T09:22:57.239Z,62.00
2022-07-28T09:23:46.159Z,61.90
2022-07-28T09:24:33.498Z,62.70
2022-07-28T09:25:18.701Z,61.80
2022-07-28T09:25:50.547Z,61.70
2022-07-28T09:26:22.398Z,62.30
2022-07-28T09:27:01.487Z,61.70
2022-07-28T09:27:44.573Z,61.60
2022-07-28T09:28:20.186Z,61.70
2022-07-28T09:28:57.245Z,61.60
2022-07-28T09:29:29.860Z,61.60
2022-07-28T09:30:01.730Z,61.50
2022-07-28T09:30:36.866Z,61.60
2022-07-28T09:31:09.332Z,61.70
2022-07-28T09:31:56.936Z,62.10
2022-07-28T09:32:28.992Z,61.60
2022-07-28T09:33:42.502Z,61.60
2022-07-28T09:34:17.973Z,61.50
2022-07-28T09:34:51.879Z,61.50
2022-07-28T09:35:23.972Z,61.50
2022-07-28T09:35:57.849Z,61.50
2022-07-28T09:36:38.640Z,61.40
2022-07-28T09:37:23.448Z,61.50
2022-07-28T09:38:00.364Z,61.70
2022-07-28T09:38:40.823Z,61.70
2022-07-28T09:39:38.041Z,61.70
2022-07-28T09:40:12.026Z,61.40
2022-07-28T09:41:04.162Z,61.60
2022-07-28T09:41:53.075Z,61.60
2022-07-28T09:42:25.810Z,61.70
2022-07-28T09:42:58.208Z,61.70
2022-07-28T09:43:42.235Z,61.70
2022-07-28T09:44:21.267Z,61.60
2022-07-28T09:45:25.489Z,61.60
2022-07-28T09:46:09.492Z,62.30
2022-07-28T09:46:41.634Z,61.60
2022-07-28T09:47:25.221Z,61.60
2022-07-28T09:48:11.397Z,61.60
2022-07-28T09:48:49.418Z,61.70
2022-07-28T09:49:28.135Z,61.90
2022-07-28T09:50:01.476Z,61.90
2022-07-28T09:50:33.407Z,61.80
2022-07-28T09:51:13.554Z,61.80
2022-07-28T09:52:01.202Z,61.70
2022-07-28T09:52:38.509Z,61.70
2022-07-28T09:53:24.486Z,61.70
2022-07-28T09:54:08.612Z,62.20
2022-07-28T09:54:59.981Z,61.20
2022-07-28T09:55:35.362Z,61.60
2022-07-28T09:56:07.481Z,61.70
2022-07-28T09:56:41.264Z,61.50
2022-07-28T09:57:13.083Z,61.60
2022-07-28T09:57:46.730Z,60.10
2022-07-28T09:58:20.482Z,61.60
2022-07-28T09:58:59.202Z,61.60
2022-07-28T09:59:43.596Z,61.50
2022-07-28T10:00:31.443Z,61.40
2022-07-28T10:01:03.672Z,61.30
2022-07-28T10:01:53.997Z,61.30
2022-07-28T10:02:28.224Z,61.10
2022-07-28T10:03:02.265Z,61.00
2022-07-28T10:03:35.488Z,60.90
2022-07-28T10:04:07.560Z,60.90
2022-07-28T10:04:42.303Z,60.80
2022-07-28T10:05:14.157Z,62.40
2022-07-28T10:05:53.731Z,60.90
2022-07-28T10:06:30.844Z,61.00
2022-07-28T10:07:03.834Z,60.80
2022-07-28T10:07:51.046Z,62.00
2022-07-28T10:08:42.018Z,60.90
2022-07-28T10:09:14.395Z,60.80
2022-07-28T10:09:59.314Z,60.80
2022-07-28T10:10:31.088Z,60.70
2022-07-28T10:11:03.582Z,60.80
2022-07-28T10:11:41.076Z,60.80
2022-07-28T10:12:19.627Z,60.70
2022-07-28T10:13:04.034Z,60.60
2022-07-28T10:13:36.862Z,60.50
2022-07-28T10:14:08.691Z,60.50
2022-07-28T10:14:40.444Z,60.60
2022-07-28T10:15:33.613Z,60.80
2022-07-28T10:16:10.847Z,60.80
2022-07-28T10:16:44.437Z,60.80
2022-07-28T10:17:33.511Z,60.70
2022-07-28T10:18:06.159Z,60.70
2022-07-28T10:18:41.598Z,60.70
2022-07-28T10:19:13.392Z,60.70
2022-07-28T10:19:45.202Z,60.70
2022-07-28T10:20:17.019Z,60.90
2022-07-28T10:20:50.737Z,60.60
2022-07-28T13:42:17.106Z,59.40
2022-07-28T22:59:28.876Z,49.60
2022-07-28T23:45:45.018Z,51.90
2022-07-28T23:46:16.914Z,51.10
2022-07-28T23:46:48.881Z,51.00
2022-07-28T23:47:20.866Z,50.90
2022-07-28T23:47:58.561Z,51.40
2022-07-28T23:48:30.863Z,51.50
2022-07-28T23:49:02.816Z,51.70
2022-07-28T23:49:34.729Z,51.80
2022-07-28T23:50:07.288Z,51.70
2022-07-28T23:50:39.114Z,51.70
2022-07-28T23:51:11.025Z,51.80
2022-07-28T23:51:48.426Z,51.70
2022-07-28T23:52:20.627Z,51.80
2022-07-28T23:52:52.748Z,51.80
2022-07-28T23:53:24.903Z,52.30
2022-07-28T23:53:56.694Z,51.90
2022-07-28T23:54:28.451Z,51.90
2022-07-28T23:55:00.222Z,51.80
2022-07-28T23:55:32.033Z,51.90
2022-07-28T23:56:04.007Z,51.90
2022-07-28T23:56:35.807Z,51.80
2022-07-28T23:57:07.579Z,51.90
2022-07-28T23:57:39.387Z,51.90
2022-07-28T23:58:12.296Z,52.10
2022-07-28T23:58:44.170Z,52.00
2022-07-28T23:59:15.919Z,52.00
2022-07-28T23:59:47.767Z,52.00
